Time;durP1;ratioP1;P1;durP2;ratioP2;P2;SDS_P1;SDS_P2;PMS_P1;PMS_P2;Temp;Humidity;BMP_temperature;BMP_pressure;BME280_temperature;BME280_humidity;BME280_pressure;Samples;Min_cycle;Max_cycle;Signal;HPM_P1;HPM_P2
2022/01/15 00:00:40;;;;;;;33.03;5.67;;;;;;;0.91;100.00;101784.61;4726040;62;1139158;-75
2022/01/15 00:05:47;;;;;;;20.67;6.00;;;;;;;0.85;100.00;101787.74;4725846;62;1139228;-76
2022/01/15 00:10:53;;;;;;;28.63;5.23;;;;;;;0.78;100.00;101775.26;4800825;60;1139023;-73
2022/01/15 00:16:15;;;;;;;20.93;4.23;;;;;;;0.74;100.00;101782.73;4873692;60;1139332;-71
2022/01/15 00:21:14;;;;;;;23.17;4.50;;;;;;;0.69;100.00;101785.84;4871859;60;1139293;-75
2022/01/15 00:26:20;;;;;;;19.87;4.57;;;;;;;0.66;100.00;101790.66;4873876;60;1139581;-78
2022/01/15 00:31:27;;;;;;;27.23;4.57;;;;;;;0.63;100.00;101790.70;4873416;60;1139239;-74
2022/01/15 00:36:32;;;;;;;33.50;7.37;;;;;;;0.61;100.00;101785.95;4873372;60;1137024;-70
2022/01/15 00:41:38;;;;;;;23.53;4.40;;;;;;;0.59;100.00;101779.08;4873633;60;1137469;-76
2022/01/15 00:46:45;;;;;;;31.77;5.42;;;;;;;0.57;100.00;101775.64;4873604;60;1137029;-72
2022/01/15 00:51:51;;;;;;;34.40;7.80;;;;;;;0.55;100.00;101767.85;4884090;60;1136930;-76
2022/01/15 00:56:56;;;;;;;39.73;6.43;;;;;;;0.51;100.00;101762.27;4884179;60;1136583;-73
2022/01/15 01:02:03;;;;;;;23.40;4.67;;;;;;;0.54;100.00;101773.94;4884002;60;1136911;-74
2022/01/15 01:07:09;;;;;;;22.77;4.77;;;;;;;0.46;100.00;101765.37;4884075;60;1136943;-74
2022/01/15 01:22:56;;;;;;;28.50;4.83;;;;;;;0.27;100.00;101772.64;4975859;59;1136949;-77
2022/01/15 01:28:12;;;;;;;25.95;5.70;;;;;;;0.15;100.00;101771.53;4965798;59;1137031;-69
2022/01/15 01:38:27;;;;;;;24.32;5.20;;;;;;;0.19;100.00;101791.83;4901623;60;1139025;-70
2022/01/15 01:48:43;;;;;;;26.67;4.87;;;;;;;0.09;100.00;101782.00;5043838;58;1139134;-76
2022/01/15 01:53:52;;;;;;;25.53;4.67;;;;;;;0.06;100.00;101780.74;4889587;60;1139064;-70
2022/01/15 01:58:58;;;;;;;28.83;4.70;;;;;;;0.02;100.00;101774.30;4973248;59;1139061;-75
2022/01/15 02:04:05;;;;;;;28.63;5.63;;;;;;;-0.01;100.00;101773.92;4884790;60;1139018;-76
2022/01/15 02:09:12;;;;;;;31.97;6.28;;;;;;;-0.04;100.00;101772.66;4966952;59;1141292;-77
2022/01/15 02:14:30;;;;;;;20.10;4.33;;;;;;;-0.03;100.00;101771.78;4901816;60;1141192;-70
2022/01/15 02:20:36;;;;;;;32.33;4.33;;;;;;;-0.04;100.00;101760.96;4888593;60;1141125;-73
2022/01/15 02:24:49;;;;;;;28.20;6.23;;;;;;;-0.08;100.00;101770.98;4821030;61;1141146;-72
2022/01/15 02:29:55;;;;;;;23.30;4.33;;;;;;;-0.12;100.00;101764.09;4871601;60;1141201;-69
2022/01/15 02:35:05;;;;;;;19.07;4.27;;;;;;;-0.14;100.00;101771.05;4844870;61;1141085;-79
2022/01/15 02:40:12;;;;;;;23.87;4.93;;;;;;;-0.20;100.00;101764.65;4844764;60;1141588;-73
2022/01/15 02:45:25;;;;;;;19.37;5.20;;;;;;;-0.19;100.00;101767.67;4871753;60;1141128;-73
2022/01/15 02:50:31;;;;;;;25.13;4.67;;;;;;;-0.20;100.00;101760.75;4844767;61;1141315;-78
2022/01/15 02:55:42;;;;;;;21.17;5.43;;;;;;;-0.20;100.00;101764.21;4871800;60;1140994;-72
2022/01/15 03:00:49;;;;;;;26.43;4.30;;;;;;;-0.22;100.00;101758.61;4844787;61;1141144;-71
2022/01/15 03:05:55;;;;;;;17.47;4.50;;;;;;;-0.25;100.00;101759.94;4848188;60;1141078;-75
2022/01/15 03:11:01;;;;;;;32.27;6.47;;;;;;;-0.26;100.00;101760.38;4927559;59;1141181;-73
2022/01/15 03:16:13;;;;;;;25.43;5.10;;;;;;;-0.25;100.00;101768.60;5029152;58;1141145;-74
2022/01/15 03:21:18;;;;;;;26.40;5.17;;;;;;;-0.26;100.00;101762.98;4884997;60;1141170;-78
2022/01/15 03:26:24;;;;;;;27.87;4.37;;;;;;;-0.27;100.00;101766.45;4884176;60;1141143;-73
2022/01/15 03:31:30;;;;;;;30.27;5.00;;;;;;;-0.29;100.00;101766.05;4873210;60;1141161;-73
2022/01/15 03:36:36;;;;;;;32.87;6.80;;;;;;;-0.34;100.00;101765.27;4825497;60;1141258;-71
2022/01/15 03:41:41;;;;;;;29.87;6.10;;;;;;;-0.34;100.00;101778.27;4877131;60;1141138;-70
2022/01/15 03:46:47;;;;;;;27.47;7.47;;;;;;;-0.38;100.00;101783.94;4808849;61;1141190;-75
2022/01/15 03:51:53;;;;;;;21.90;5.10;;;;;;;-0.40;100.00;101786.55;4888095;60;1141387;-70
2022/01/15 03:56:59;;;;;;;34.07;5.10;;;;;;;-0.43;100.00;101778.78;4808862;61;1141312;-75
2022/01/15 04:02:05;;;;;;;13.60;2.67;;;;;;;-0.46;100.00;101788.38;4888110;60;1141125;-70
2022/01/15 04:07:11;;;;;;;14.23;3.63;;;;;;;-0.48;100.00;101781.91;4808804;61;1141566;-71
2022/01/15 04:12:16;;;;;;;24.33;5.00;;;;;;;-0.47;100.00;101788.82;4834634;60;1139048;-73
2022/01/15 04:17:21;;;;;;;18.03;4.40;;;;;;;-0.49;100.00;101787.11;4736022;62;1139044;-76
2022/01/15 04:22:27;;;;;;;26.00;4.73;;;;;;;-0.49;100.00;101793.61;4735927;61;1139571;-71
2022/01/15 04:27:34;;;;;;;18.97;3.80;;;;;;;-0.47;100.00;101800.52;4891217;60;1139296;-74
2022/01/15 04:32:40;;;;;;;35.90;6.53;;;;;;;-0.51;100.00;101793.63;4905602;58;1139168;-73
2022/01/15 04:37:50;;;;;;;21.13;6.40;;;;;;;-0.51;100.00;101795.36;4940494;58;1139339;-69
2022/01/15 04:42:53;;;;;;;35.43;7.70;;;;;;;-0.54;100.00;101798.84;4924187;58;1138894;-71
2022/01/15 04:47:59;;;;;;;31.00;5.77;;;;;;;-0.57;100.00;101798.88;4926981;58;1139018;-70
2022/01/15 04:53:04;;;;;;;32.50;5.67;;;;;;;-0.57;100.00;101804.08;4964862;59;1139142;-71
2022/01/15 04:58:11;;;;;;;24.30;6.03;;;;;;;-0.60;100.00;101801.50;4956934;59;1138989;-73
2022/01/15 05:03:16;;;;;;;38.10;6.27;;;;;;;-0.62;100.00;101803.29;4933736;58;1139015;-73
2022/01/15 05:08:22;;;;;;;26.87;5.83;;;;;;;-0.64;100.00;101809.37;4969051;58;1139131;-71
2022/01/15 05:13:33;;;;;;;24.13;5.03;;;;;;;-0.69;100.00;101800.76;5049101;58;1139248;-72
2022/01/15 05:18:35;;;;;;;20.13;4.27;;;;;;;-0.83;100.00;101782.29;5044489;58;1139129;-74
2022/01/15 05:23:41;;;;;;;28.53;5.03;;;;;;;-0.83;100.00;101798.31;5039211;58;1139104;-71
2022/01/15 05:28:47;;;;;;;31.20;6.23;;;;;;;-0.85;100.00;101789.67;5039445;58;1139069;-70
2022/01/15 05:33:54;;;;;;;32.33;5.73;;;;;;;-0.89;100.00;101800.52;5039148;58;1139280;-71
2022/01/15 05:39:00;;;;;;;16.73;4.10;;;;;;;-0.92;100.00;101804.47;5049975;58;1136977;-70
2022/01/15 05:44:06;;;;;;;15.40;4.17;;;;;;;-0.93;100.00;101816.17;5050250;58;1136920;-72
2022/01/15 05:49:13;;;;;;;28.70;6.35;;;;;;;-0.93;100.00;101815.73;5058875;58;1141131;-72
2022/01/15 05:54:19;;;;;;;36.30;7.62;;;;;;;-0.93;100.00;101809.67;4980440;58;1141160;-69
2022/01/15 05:59:26;;;;;;;25.93;7.23;;;;;;;-0.90;100.00;101822.17;5057219;58;1141119;-71
2022/01/15 06:04:31;;;;;;;30.67;6.50;;;;;;;-0.87;100.00;101817.39;5060933;58;1141295;-69
2022/01/15 06:09:38;;;;;;;42.90;8.37;;;;;;;-0.87;100.00;101818.69;5041908;58;1141126;-71
2022/01/15 06:14:44;;;;;;;27.37;6.33;;;;;;;-0.86;100.00;101819.11;5001954;59;1141082;-70
2022/01/15 06:19:50;;;;;;;24.93;6.77;;;;;;;-0.86;100.00;101810.02;5011569;59;1141127;-73
2022/01/15 06:24:55;;;;;;;22.45;5.85;;;;;;;-0.88;100.00;101806.14;4940756;59;1141170;-69
2022/01/15 06:30:02;;;;;;;27.20;6.75;;;;;;;-0.83;100.00;101813.89;4921207;59;1141407;-69
2022/01/15 06:35:12;;;;;;;38.63;7.30;;;;;;;-0.82;100.00;101816.91;4912873;58;1141622;-68
2022/01/15 06:40:19;;;;;;;37.17;8.93;;;;;;;-0.84;100.00;101802.64;4921335;59;1141070;-69
2022/01/15 06:45:25;;;;;;;51.87;13.70;;;;;;;-0.83;100.00;101822.55;4921180;59;1141316;-70
2022/01/15 06:50:32;;;;;;;26.93;6.07;;;;;;;-0.79;100.00;101829.87;4921163;59;1143402;-73
2022/01/15 06:55:37;;;;;;;27.57;6.07;;;;;;;-0.73;100.00;101829.36;4921136;60;1141203;-74
2022/01/15 07:00:43;;;;;;;31.20;6.30;;;;;;;-0.69;100.00;101837.13;4921242;59;1141467;-71
2022/01/15 07:05:49;;;;;;;32.27;8.70;;;;;;;-0.70;100.00;101834.97;4848759;61;1141353;-69
2022/01/15 07:10:54;;;;;;;31.97;9.03;;;;;;;-0.72;100.00;101840.61;4997113;58;1141539;-72
2022/01/15 07:16:01;;;;;;;45.97;14.20;;;;;;;-0.73;100.00;101851.88;4911260;60;1141076;-71
2022/01/15 07:21:07;;;;;;;262.50;74.12;;;;;;;-0.75;100.00;101851.02;4959084;58;1143141;-74
2022/01/15 07:26:12;;;;;;;143.27;44.60;;;;;;;-0.77;100.00;101836.78;4767783;60;1145323;-78
2022/01/15 07:31:17;;;;;;;83.67;22.90;;;;;;;-0.76;100.00;101850.16;4769406;60;1145322;-71
2022/01/15 07:36:23;;;;;;;122.97;29.37;;;;;;;-0.75;100.00;101854.48;4900294;59;1143291;-71
2022/01/15 07:41:30;;;;;;;456.30;133.73;;;;;;;-0.73;100.00;101867.02;4879596;60;1145319;-78
2022/01/15 07:46:38;;;;;;;49.53;12.10;;;;;;;-0.74;100.00;101863.14;4879140;60;1147283;-72
2022/01/15 07:51:44;;;;;;;101.00;31.53;;;;;;;-0.67;100.00;101876.94;4916650;59;1143184;-73
2022/01/15 07:56:54;;;;;;;64.03;24.82;;;;;;;-0.66;100.00;101874.77;4975418;58;1145220;-71
2022/01/15 08:01:57;;;;;;;59.10;16.37;;;;;;;-0.65;100.00;101867.41;4966993;58;1143163;-71
2022/01/15 08:07:03;;;;;;;167.20;48.70;;;;;;;-0.66;100.00;101880.83;4966996;58;1143182;-70
2022/01/15 08:12:11;;;;;;;37.67;7.57;;;;;;;-0.71;100.00;101886.06;5020331;58;1145605;-70
2022/01/15 08:17:18;;;;;;;25.03;12.33;;;;;;;-0.72;100.00;101886.93;5035976;58;1141086;-74
2022/01/15 08:22:25;;;;;;;35.93;16.13;;;;;;;-0.72;100.00;101902.52;5037187;58;1143319;-70
2022/01/15 08:27:31;;;;;;;44.07;15.07;;;;;;;-0.69;100.00;101905.97;5066708;58;1143311;-76
2022/01/15 08:32:37;;;;;;;91.27;29.43;;;;;;;-0.68;100.00;101896.86;5049179;58;1143432;-78
2022/01/15 08:37:43;;;;;;;39.47;14.53;;;;;;;-0.68;100.00;101899.47;5046611;58;1143142;-78
2022/01/15 08:42:51;;;;;;;26.23;7.27;;;;;;;-0.65;100.00;101895.55;5038189;58;1143225;-72
2022/01/15 08:48:05;;;;;;;32.77;8.00;;;;;;;-0.65;100.00;101897.28;5037680;58;1140541;-77
2022/01/15 08:53:07;;;;;;;37.20;9.87;;;;;;;-0.63;100.00;101912.42;5038163;58;1141372;-75
2022/01/15 08:58:13;;;;;;;33.33;11.70;;;;;;;-0.62;100.00;101916.74;5039228;58;1139050;-74
2022/01/15 09:03:19;;;;;;;35.10;17.43;;;;;;;-0.59;100.00;101909.75;4970489;58;1141155;-78
2022/01/15 09:08:25;;;;;;;83.70;19.80;;;;;;;-0.51;100.00;101914.89;4880355;58;1141034;-81
2022/01/15 09:13:30;;;;;;;39.23;11.87;;;;;;;-0.47;100.00;101911.39;5038067;58;1141108;-75
2022/01/15 09:18:37;;;;;;;44.03;12.50;;;;;;;-0.43;100.00;101926.06;5038494;58;1141165;-77
2022/01/15 09:23:43;;;;;;;24.83;8.00;;;;;;;-0.44;100.00;101919.14;5004544;58;1141325;-77
2022/01/15 09:34:13;;;;;;;34.73;9.17;;;;;;;-0.51;100.00;101932.64;5060372;58;1141151;-78
2022/01/15 09:39:20;;;;;;;31.00;8.77;;;;;;;-0.54;100.00;101924.87;5005272;58;1139004;-70
2022/01/15 09:44:27;;;;;;;36.23;12.00;;;;;;;-0.49;100.00;101929.60;4927827;58;1139003;-79
2022/01/15 09:49:33;;;;;;;23.10;7.40;;;;;;;-0.44;100.00;101924.33;4943663;59;1141118;-80
2022/01/15 09:54:40;;;;;;;20.60;7.43;;;;;;;-0.33;100.00;101935.51;4978105;59;1139297;-69
2022/01/15 09:59:46;;;;;;;18.53;7.40;;;;;;;-0.33;100.00;101935.95;4977984;59;1139198;-71
2022/01/15 10:04:53;;;;;;;23.70;8.50;;;;;;;-0.32;100.00;101935.08;4977940;59;1139134;-74
2022/01/15 10:10:14;;;;;;;28.50;9.03;;;;;;;-0.30;100.00;101931.98;4924751;59;1136915;-71
2022/01/15 10:15:20;;;;;;;28.90;8.60;;;;;;;-0.23;100.00;101933.23;4899926;60;1141220;-69
2022/01/15 10:20:32;;;;;;;26.33;8.47;;;;;;;-0.08;100.00;101925.27;4892726;60;1141051;-74
2022/01/15 10:25:38;;;;;;;38.97;8.93;;;;;;;0.03;100.00;101924.27;4890040;60;1141203;-69
2022/01/15 10:30:46;;;;;;;16.23;6.43;;;;;;;0.22;100.00;101929.23;4891182;60;1139024;-79
2022/01/15 10:35:52;;;;;;;30.77;8.83;;;;;;;0.33;100.00;101926.48;4907234;59;1138968;-73
2022/01/15 10:40:58;;;;;;;29.17;6.27;;;;;;;0.33;100.00;101924.75;4957779;58;1139154;-72
2022/01/15 10:46:04;;;;;;;27.60;7.13;;;;;;;0.42;100.00;101928.98;4856426;59;1139078;-80
2022/01/15 10:51:11;;;;;;;23.13;7.73;;;;;;;0.39;100.00;101922.95;4941047;59;1138972;-77
2022/01/15 10:56:18;;;;;;;31.77;12.77;;;;;;;0.49;100.00;101916.30;4941002;59;1139010;-70
2022/01/15 11:01:30;;;;;;;21.30;8.83;;;;;;;0.64;100.00;101919.13;4942192;58;1141040;-74
2022/01/15 11:06:39;;;;;;;34.93;8.77;;;;;;;0.70;100.00;101914.70;4944925;58;1139226;-74
2022/01/15 11:12:00;;;;;;;32.23;10.23;;;;;;;0.89;100.00;101910.09;4940382;58;1139167;-81
2022/01/15 11:17:06;;;;;;;36.50;10.33;;;;;;;1.06;100.00;101900.70;4929357;59;1141332;-72
2022/01/15 11:22:12;;;;;;;36.83;11.33;;;;;;;1.22;100.00;101891.72;4806530;60;1141097;-74
2022/01/15 11:27:19;;;;;;;15.13;5.73;;;;;;;1.34;100.00;101890.22;4930356;59;1141221;-74
2022/01/15 11:32:27;;;;;;;19.90;6.60;;;;;;;1.46;100.00;101893.48;4932485;59;1139253;-76
2022/01/15 11:37:53;;;;;;;31.43;9.93;;;;;;;1.38;100.00;101884.48;4815242;60;1138922;-72
2022/01/15 11:42:58;;;;;;;31.67;9.50;;;;;;;1.46;100.00;101877.84;4773218;61;1139032;-75
2022/01/15 11:48:28;;;;;;;23.27;6.60;;;;;;;1.43;100.00;101877.45;4907217;59;1139296;-76
2022/01/15 11:53:59;;;;;;;24.20;8.03;;;;;;;1.64;100.00;101868.38;4932769;59;1139063;-75
2022/01/15 11:59:02;;;;;;;25.50;7.70;;;;;;;1.84;100.00;101864.06;4775945;61;1137433;-78
2022/01/15 12:04:35;;;;;;;42.00;16.90;;;;;;;2.24;100.00;101888.45;4875210;59;1136988;-78
2022/01/15 12:09:47;;;;;;;39.10;14.63;;;;;;;2.56;100.00;101869.92;4877810;60;1139011;-73
2022/01/15 12:14:59;;;;;;;37.23;14.13;;;;;;;2.71;100.00;101879.56;4874228;59;1139294;-78
2022/01/15 12:20:10;;;;;;;55.08;23.47;;;;;;;2.90;100.00;101872.16;4882276;60;1138619;-73
2022/01/15 12:25:23;;;;;;;42.17;14.85;;;;;;;2.75;100.00;101870.73;4878515;60;1139217;-71
2022/01/15 12:30:46;;;;;;;43.57;13.70;;;;;;;2.32;100.00;101872.17;4840097;59;1136589;-70
2022/01/15 12:35:51;;;;;;;35.03;11.90;;;;;;;1.90;100.00;101872.63;4859982;60;1141219;-71
2022/01/15 12:41:10;;;;;;;36.05;13.65;;;;;;;1.62;100.00;101871.46;4803159;61;1141133;-73
2022/01/15 12:46:18;;;;;;;34.30;11.60;;;;;;;1.52;100.00;101865.58;4832360;60;1141364;-74
2022/01/15 12:51:24;;;;;;;28.75;10.60;;;;;;;1.40;100.00;101869.69;4861207;60;1141297;-67
2022/01/15 12:56:34;;;;;;;21.13;8.83;;;;;;;1.27;100.00;101869.05;4799839;61;1141154;-72
2022/01/15 13:01:40;;;;;;;34.43;11.03;;;;;;;1.25;100.00;101869.95;4850821;60;1139001;-69
2022/01/15 13:06:50;;;;;;;20.90;8.73;;;;;;;1.42;100.00;101866.61;4877654;60;1141149;-70
2022/01/15 13:12:00;;;;;;;34.13;10.17;;;;;;;1.49;100.00;101864.77;4775011;61;1139033;-72
2022/01/15 13:17:06;;;;;;;;;;;;;;;1.52;100.00;101865.58;4808131;60;1141103;-72
2022/01/15 13:22:11;;;;;;;257.67;90.20;;;;;;;1.45;100.00;101866.56;4786232;60;974403;-69
2022/01/15 13:27:22;;;;;;;267.30;99.00;;;;;;;1.61;100.00;101865.83;4798808;61;1141125;-71
2022/01/15 13:32:27;;;;;;;125.67;59.15;;;;;;;1.87;100.00;101875.30;4878097;60;1143255;-68
2022/01/15 13:37:34;;;;;;;294.00;107.33;;;;;;;2.17;100.00;101860.76;4909328;60;1143274;-74
2022/01/15 13:42:39;;;;;;;117.03;55.30;;;;;;;2.48;100.00;101860.94;5030452;58;1145327;-78
2022/01/15 13:47:45;;;;;;;86.30;45.43;;;;;;;2.78;100.00;101861.97;5031815;58;1143353;-73
2022/01/15 13:53:06;;;;;;;585.70;223.50;;;;;;;3.02;100.00;101867.93;5031665;58;1141133;-74
2022/01/15 13:58:16;;;;;;;353.77;100.00;;;;;;;2.78;100.00;101872.42;5042269;58;1145477;-73
2022/01/15 14:03:26;;;;;;;545.67;150.00;;;;;;;2.27;100.00;101882.32;5042278;58;1145340;-73
2022/01/15 14:08:31;;;;;;;242.90;71.10;;;;;;;1.89;100.00;101884.41;5042142;57;1145559;-73
2022/01/15 14:13:37;;;;;;;442.57;218.57;;;;;;;1.51;100.00;101875.59;4925650;60;1143187;-70
2022/01/15 14:18:46;;;;;;;334.27;150.53;;;;;;;1.13;100.00;101873.64;5029090;58;1145315;-72
2022/01/15 14:23:55;;;;;;;564.15;272.33;;;;;;;0.95;100.00;101883.92;5027343;58;1144591;-74
2022/01/15 14:29:00;;;;;;;301.80;67.63;;;;;;;0.79;100.00;101876.38;5011136;58;1145241;-72
2022/01/15 14:34:07;;;;;;;145.10;40.23;;;;;;;0.69;100.00;101875.66;5015833;58;1143301;-74
2022/01/15 14:39:16;;;;;;;117.40;29.73;;;;;;;0.58;100.00;101871.07;4855861;60;1142607;-75
2022/01/15 14:44:21;;;;;;;119.17;39.67;;;;;;;0.53;100.00;101865.92;4934728;59;1143210;-77
2022/01/15 14:49:26;;;;;;;152.27;44.50;;;;;;;0.46;100.00;101872.09;4927636;59;1140559;-77
2022/01/15 14:54:33;;;;;;;372.33;108.70;;;;;;;0.34;100.00;101871.83;4894545;59;1141210;-79
2022/01/15 14:59:38;;;;;;;40.90;17.92;;;;;;;0.28;100.00;101883.64;4812408;59;1143251;-77
2022/01/15 15:04:44;;;;;;;59.63;20.40;;;;;;;0.27;100.00;101882.35;4889284;59;1139071;-75
2022/01/15 15:09:50;;;;;;;64.73;19.20;;;;;;;0.21;100.00;101878.52;4911675;58;1139223;-72
2022/01/15 15:14:56;;;;;;;63.83;24.87;;;;;;;0.15;100.00;101887.28;4968363;59;1139062;-73
2022/01/15 15:20:03;;;;;;;45.03;16.67;;;;;;;0.05;100.00;101878.30;4968688;59;1139258;-74
2022/01/15 15:25:13;;;;;;;207.53;129.87;;;;;;;-0.02;100.00;101881.43;4929273;58;1139016;-74
2022/01/15 15:30:19;;;;;;;185.17;79.37;;;;;;;-0.08;100.00;101882.35;4890710;60;1145608;-70
2022/01/15 15:35:25;;;;;;;105.63;37.10;;;;;;;-0.07;100.00;101886.67;4890684;60;1143386;-71
2022/01/15 15:40:30;;;;;;;69.80;28.63;;;;;;;-0.04;100.00;101890.98;4890625;60;1143325;-73
2022/01/15 15:45:36;;;;;;;72.90;28.43;;;;;;;-0.06;100.00;101875.84;4924653;59;1141115;-72
2022/01/15 15:50:44;;;;;;;53.90;19.23;;;;;;;-0.10;100.00;101867.20;4897414;58;1141257;-74
2022/01/15 15:55:50;;;;;;;40.63;16.93;;;;;;;-0.21;100.00;101883.38;4883528;59;1141255;-71
2022/01/15 16:00:55;;;;;;;31.83;12.93;;;;;;;-0.21;100.00;101883.38;4884363;59;1141267;-74
2022/01/15 16:06:03;;;;;;;31.60;11.30;;;;;;;-0.34;100.00;101872.70;4953068;59;1141417;-73
2022/01/15 16:11:09;;;;;;;34.53;12.53;;;;;;;-0.43;100.00;101874.08;4972400;58;1139241;-72
2022/01/15 16:16:15;;;;;;;38.47;13.20;;;;;;;-0.46;100.00;101884.06;4990908;59;1139037;-73
2022/01/15 16:21:22;;;;;;;34.83;12.70;;;;;;;-0.45;100.00;101887.09;5003775;59;1143168;-69
2022/01/15 16:26:28;;;;;;;35.23;13.78;;;;;;;-0.40;100.00;101872.75;4989652;58;1143432;-70
2022/01/15 16:31:35;;;;;;;35.30;14.53;;;;;;;-0.42;100.00;101864.97;4990900;59;1143383;-68
2022/01/15 16:36:41;;;;;;;27.95;11.03;;;;;;;-0.49;100.00;101865.94;4989996;59;1143231;-73
2022/01/15 16:41:46;;;;;;;19.27;10.27;;;;;;;-0.55;100.00;101878.11;4959006;59;1143601;-73
2022/01/15 16:46:52;;;;;;;27.97;11.60;;;;;;;-0.65;100.00;101889.05;4958891;59;1143232;-73
2022/01/15 16:52:02;;;;;;;36.87;16.13;;;;;;;-0.68;100.00;101866.98;4951359;58;1143246;-74
2022/01/15 16:57:07;;;;;;;27.87;11.50;;;;;;;-0.68;100.00;101867.42;4958361;59;1143137;-69
2022/01/15 17:02:13;;;;;;;23.20;11.60;;;;;;;-0.73;100.00;101873.52;4970730;59;1143442;-70
2022/01/15 17:07:19;;;;;;;125.90;43.50;;;;;;;-0.69;100.00;101863.10;4967991;58;1143435;-74
2022/01/15 17:12:25;;;;;;;290.70;92.13;;;;;;;-0.65;100.00;101870.00;4971227;59;1144682;-68
2022/01/15 17:17:34;;;;;;;45.77;16.07;;;;;;;-0.64;100.00;101861.33;4967496;58;1145139;-69
2022/01/15 17:22:40;;;;;;;55.83;18.70;;;;;;;-0.71;100.00;101853.59;4945742;58;1143214;-73
2022/01/15 17:27:46;;;;;;;33.03;11.27;;;;;;;-0.74;100.00;101867.03;4979036;59;1143405;-72
2022/01/15 17:32:51;;;;;;;28.20;12.50;;;;;;;-0.82;100.00;101871.02;4972287;59;1143266;-71
2022/01/15 17:37:58;;;;;;;31.53;12.80;;;;;;;-0.88;100.00;101866.30;4970127;59;1143189;-70
2022/01/15 17:43:05;;;;;;;29.40;12.85;;;;;;;-0.88;100.00;101855.48;4978971;59;1143192;-71
2022/01/15 17:48:11;;;;;;;28.13;13.53;;;;;;;-0.83;100.00;101849.81;4979491;59;1143531;-73
2022/01/15 17:53:18;;;;;;;26.50;11.27;;;;;;;-0.72;100.00;101854.46;4978918;59;1143275;-73
2022/01/15 17:58:25;;;;;;;32.77;12.20;;;;;;;-0.71;100.00;101853.59;4987551;59;1143306;-76
2022/01/15 18:03:32;;;;;;;23.80;9.47;;;;;;;-0.69;100.00;101854.88;4989283;59;1143377;-72
2022/01/15 18:08:38;;;;;;;24.30;10.70;;;;;;;-0.69;100.00;101851.41;4985044;59;1141147;-72
2022/01/15 18:13:46;;;;;;;21.53;10.57;;;;;;;-0.70;100.00;101850.55;4902095;60;1143316;-70
2022/01/15 18:18:51;;;;;;;23.57;10.80;;;;;;;-0.72;100.00;101849.27;4946225;58;1143470;-75
2022/01/15 18:23:57;;;;;;;52.03;29.83;;;;;;;-0.69;100.00;101847.52;4976421;59;1143109;-74
2022/01/15 18:29:02;;;;;;;64.70;19.15;;;;;;;-0.77;100.00;101834.63;4989516;59;1143305;-70
2022/01/15 18:34:08;;;;;;;41.63;11.57;;;;;;;-0.91;100.00;101859.39;4989707;59;1143220;-71
2022/01/15 18:39:15;;;;;;;24.30;10.80;;;;;;;-0.91;100.00;101859.39;4979715;59;1143184;-75
2022/01/15 18:44:22;;;;;;;24.37;9.00;;;;;;;-0.89;100.00;101849.00;4979360;59;1143460;-72
2022/01/15 18:49:28;;;;;;;23.70;9.07;;;;;;;-0.85;100.00;101849.40;4979950;59;1141117;-79
2022/01/15 18:54:34;;;;;;;23.23;9.47;;;;;;;-0.87;100.00;101853.75;4981009;59;1141695;-68
2022/01/15 18:59:40;;;;;;;20.80;9.33;;;;;;;-0.88;100.00;101864.57;4980458;59;1141081;-75
2022/01/15 19:04:46;;;;;;;26.80;11.43;;;;;;;-0.88;100.00;101870.20;4964084;58;1141071;-73
2022/01/15 19:09:54;;;;;;;68.70;27.17;;;;;;;-0.86;100.00;101900.92;4972878;58;1143119;-76
2022/01/15 19:15:03;;;;;;;390.87;139.83;;;;;;;-0.81;100.00;101875.34;4940759;58;1143204;-77
2022/01/15 19:20:12;;;;;;;63.47;21.07;;;;;;;-0.84;100.00;101806.97;4940432;58;1147420;-80
2022/01/15 19:25:26;;;;;;;47.80;16.97;;;;;;;-0.87;100.00;101813.05;4922517;59;1141722;-74
2022/01/15 19:30:30;;;;;;;39.37;11.20;;;;;;;-0.89;100.00;101831.68;4918427;59;1141374;-74
2022/01/15 19:35:37;;;;;;;32.53;12.73;;;;;;;-0.92;100.00;101855.11;4911275;60;1141445;-74
2022/01/15 19:40:43;;;;;;;25.27;9.60;;;;;;;-0.91;100.00;101768.51;4946332;58;1141032;-75
2022/01/15 19:45:49;;;;;;;19.77;8.83;;;;;;;-0.92;100.00;101734.36;4783060;61;1139242;-75
2022/01/15 19:50:55;;;;;;;21.07;9.80;;;;;;;-0.96;100.00;101740.45;4949343;58;1139282;-74
2022/01/15 19:56:01;;;;;;;25.57;10.23;;;;;;;-0.97;100.00;101800.19;4942689;59;1138991;-76
2022/01/15 20:01:09;;;;;;;25.83;8.37;;;;;;;-0.92;100.00;101816.59;4901332;60;1141065;-74
2022/01/15 20:06:14;;;;;;;37.97;15.33;;;;;;;-0.93;100.00;101846.03;4932875;59;1139241;-75
2022/01/15 20:11:20;;;;;;;27.60;10.03;;;;;;;-0.92;100.00;101825.69;4948479;59;1141353;-76
2022/01/15 20:16:26;;;;;;;105.90;45.12;;;;;;;-0.91;100.00;101782.79;4979400;59;1141238;-79
2022/01/15 20:21:32;;;;;;;23.83;10.27;;;;;;;-0.84;100.00;101789.66;4993860;58;1143530;-78
2022/01/15 20:26:39;;;;;;;17.90;7.43;;;;;;;-0.82;100.00;101790.94;5051480;58;1140858;-81
2022/01/15 20:31:46;;;;;;;23.13;9.23;;;;;;;-0.77;100.00;101790.47;5012062;58;1139072;-71
2022/01/15 20:36:52;;;;;;;24.90;10.30;;;;;;;-0.78;100.00;101770.56;4915138;59;1139417;-74
2022/01/15 20:42:03;;;;;;;61.20;19.93;;;;;;;-0.81;100.00;101788.77;4945300;59;1141082;-76
2022/01/15 20:47:07;;;;;;;21.90;9.07;;;;;;;-0.79;100.00;101771.44;4909783;59;1139459;-78
2022/01/15 20:52:13;;;;;;;27.87;12.07;;;;;;;-0.75;100.00;101779.59;4960891;59;1136939;-79
2022/01/15 20:57:19;;;;;;;130.60;52.27;;;;;;;-0.70;100.00;101801.20;4989102;59;1150516;-78
2022/01/15 21:02:25;;;;;;;40.47;14.70;;;;;;;-0.65;100.00;101807.65;4914146;59;1145504;-78
2022/01/15 21:07:30;;;;;;;36.70;12.77;;;;;;;-0.59;100.00;101804.97;4802047;60;1143788;-70
2022/01/15 21:12:38;;;;;;;46.07;14.20;;;;;;;-0.56;100.00;101808.84;4941946;59;1143764;-79
2022/01/15 21:17:45;;;;;;;43.30;16.43;;;;;;;-0.55;100.00;101787.17;4913548;58;1143263;-81
2022/01/15 21:22:53;;;;;;;47.73;16.02;;;;;;;-0.56;100.00;101765.96;4891113;60;1143226;-79
2022/01/15 21:27:59;;;;;;;349.57;152.33;;;;;;;-0.56;100.00;101765.96;4954923;58;1143172;-81
2022/01/15 21:33:07;;;;;;;64.50;24.37;;;;;;;-0.58;100.00;101757.32;4926885;59;1147597;-78
2022/01/15 21:38:13;;;;;;;77.90;21.63;;;;;;;-0.66;100.00;101749.64;4937867;59;1143533;-81
2022/01/15 21:43:20;;;;;;;56.83;18.15;;;;;;;-0.69;100.00;101748.37;4845763;59;1143585;-75
2022/01/15 21:48:26;;;;;;;46.80;16.70;;;;;;;-0.66;100.00;101743.14;4991603;57;1143268;-73
2022/01/15 21:53:33;;;;;;;35.00;9.97;;;;;;;-0.71;100.00;101745.78;4980533;58;1143178;-75
2022/01/15 21:58:39;;;;;;;22.53;6.47;;;;;;;-0.78;100.00;101753.24;4975038;58;1141104;-74
2022/01/15 22:03:46;;;;;;;26.73;11.43;;;;;;;-0.88;100.00;101752.04;5009123;58;1141349;-71
2022/01/15 22:08:58;;;;;;;31.80;10.77;;;;;;;-0.91;100.00;101746.88;5026698;57;1142357;-77
2022/01/15 22:14:05;;;;;;;44.63;12.57;;;;;;;-0.88;100.00;101745.55;5020956;58;1143568;-75
2022/01/15 22:19:11;;;;;;;148.87;59.37;;;;;;;-0.88;100.00;101742.95;4942009;59;1143445;-73
2022/01/15 22:24:18;;;;;;;13.07;5.47;;;;;;;-0.88;100.00;101749.44;4933659;59;1145354;-72
2022/01/15 22:29:25;;;;;;;20.50;7.80;;;;;;;-0.94;100.00;101729.62;4979884;59;1141152;-75
2022/01/15 22:34:31;;;;;;;25.93;6.90;;;;;;;-0.98;100.00;101722.73;4970924;59;1141210;-76
2022/01/15 22:39:37;;;;;;;25.47;7.13;;;;;;;-1.00;100.00;101735.30;4939520;58;1141088;-70
2022/01/15 22:44:43;;;;;;;24.93;10.07;;;;;;;-1.04;100.00;101728.41;4963495;59;1141507;-73
2022/01/15 22:49:49;;;;;;;23.02;6.45;;;;;;;-1.05;100.00;101740.53;4945316;58;1143198;-73
2022/01/15 22:54:54;;;;;;;27.07;10.67;;;;;;;-1.04;100.00;101743.55;4897940;59;1141192;-72
2022/01/15 23:00:00;;;;;;;17.80;7.83;;;;;;;-0.96;100.00;101741.75;4965640;59;1143466;-75
2022/01/15 23:05:06;;;;;;;21.03;9.40;;;;;;;-0.89;100.00;101739.49;4909002;59;1141195;-73